createdAt,value
2023-02-25T00:00:25.394Z,9.45
2023-02-25T00:02:54.836Z,9.88
2023-02-25T00:05:24.667Z,8.00
2023-02-25T00:07:55.160Z,9.32
2023-02-25T00:10:26.057Z,8.52
2023-02-25T00:13:00.759Z,9.85
2023-02-25T00:15:35.352Z,8.63
2023-02-25T00:18:04.935Z,7.55
2023-02-25T00:20:34.422Z,11.43
2023-02-25T00:23:03.817Z,9.43
2023-02-25T00:25:34.690Z,9.48
2023-02-25T00:28:06.335Z,9.93
2023-02-25T00:30:36.648Z,12.77
2023-02-25T00:33:07.476Z,9.60
2023-02-25T00:35:40.963Z,9.65
2023-02-25T00:38:16.008Z,10.57
2023-02-25T00:40:49.232Z,8.18
2023-02-25T00:43:18.643Z,11.98
2023-02-25T00:45:48.030Z,9.00
2023-02-25T00:48:17.495Z,10.80
2023-02-25T00:50:47.151Z,7.88
2023-02-25T00:53:17.208Z,8.30
2023-02-25T00:55:47.960Z,9.82
2023-02-25T00:58:17.364Z,7.95
2023-02-25T01:00:51.897Z,10.70
2023-02-25T01:03:21.644Z,12.40
2023-02-25T01:05:51.191Z,9.10
2023-02-25T01:08:21.724Z,10.10
2023-02-25T01:10:53.634Z,9.05
2023-02-25T01:13:23.132Z,8.15
2023-02-25T01:15:52.777Z,8.85
2023-02-25T01:18:22.322Z,8.02
2023-02-25T01:20:51.769Z,7.30
2023-02-25T01:23:21.578Z,7.45
2023-02-25T01:25:52.406Z,8.75
2023-02-25T01:28:23.624Z,8.85
2023-02-25T01:30:54.231Z,10.18
2023-02-25T01:33:23.824Z,7.47
2023-02-25T01:35:53.288Z,9.00
2023-02-25T01:38:22.725Z,8.15
2023-02-25T01:41:02.223Z,5.88
2023-02-25T01:43:31.816Z,10.48
2023-02-25T01:46:01.373Z,7.18
2023-02-25T01:48:36.668Z,6.15
2023-02-25T01:51:13.003Z,6.18
2023-02-25T01:53:47.937Z,5.90
2023-02-25T01:56:21.801Z,5.47
2023-02-25T01:58:53.087Z,5.05
2023-02-25T02:01:27.628Z,4.45
2023-02-25T02:03:57.909Z,3.78
2023-02-25T02:06:34.752Z,5.65
2023-02-25T02:09:07.181Z,4.75
2023-02-25T02:11:38.059Z,6.30
2023-02-25T02:14:11.848Z,4.70
2023-02-25T02:17:17.311Z,3.13
2023-02-25T02:20:12.987Z,4.60
2023-02-25T02:23:23.074Z,6.63
2023-02-25T02:26:41.085Z,4.53
2023-02-25T02:30:08.403Z,5.75
2023-02-25T02:32:47.830Z,6.22
2023-02-25T02:35:27.796Z,4.20
2023-02-25T02:38:13.292Z,4.20
2023-02-25T02:40:53.582Z,3.63
2023-02-25T02:43:40.500Z,4.82
2023-02-25T02:46:19.979Z,3.85
2023-02-25T02:48:59.959Z,3.75
2023-02-25T02:51:36.671Z,4.72
2023-02-25T02:54:09.848Z,3.92
2023-02-25T02:56:44.444Z,3.67
2023-02-25T02:59:20.613Z,3.83
2023-02-25T03:01:55.943Z,5.18
2023-02-25T03:04:35.138Z,3.05
2023-02-25T03:07:10.277Z,3.63
2023-02-25T03:09:47.383Z,3.22
2023-02-25T03:12:17.752Z,3.45
2023-02-25T03:14:47.269Z,3.40
2023-02-25T03:17:22.211Z,2.50
2023-02-25T03:20:02.693Z,4.10
2023-02-25T03:22:39.267Z,4.78
2023-02-25T03:25:16.248Z,4.63
2023-02-25T03:27:49.356Z,3.53
2023-02-25T03:30:32.917Z,3.10
2023-02-25T03:33:10.551Z,3.63
2023-02-25T03:35:43.649Z,4.00
2023-02-25T03:38:19.465Z,4.00
2023-02-25T03:40:51.351Z,3.47
2023-02-25T03:43:29.574Z,4.45
2023-02-25T03:45:59.955Z,4.07
2023-02-25T03:48:31.391Z,5.13
2023-02-25T03:51:06.681Z,6.93
2023-02-25T03:53:38.468Z,5.85
2023-02-25T03:56:18.064Z,4.82
2023-02-25T03:58:47.611Z,4.82
2023-02-25T04:01:22.566Z,6.18
2023-02-25T04:03:52.037Z,4.93
2023-02-25T04:06:25.620Z,7.80
2023-02-25T04:08:55.431Z,6.85
2023-02-25T04:11:25.415Z,7.75
2023-02-25T04:13:55.571Z,7.30
2023-02-25T04:16:25.275Z,6.90
2023-02-25T04:18:54.939Z,7.60
2023-02-25T04:21:35.284Z,8.18
2023-02-25T04:24:06.883Z,6.95
2023-02-25T04:26:37.461Z,6.38
2023-02-25T04:29:06.885Z,9.15
2023-02-25T04:31:36.390Z,6.82
2023-02-25T04:34:05.933Z,8.07
2023-02-25T04:36:37.902Z,7.85
2023-02-25T04:39:07.385Z,8.65
2023-02-25T04:41:37.500Z,8.80
2023-02-25T04:44:08.969Z,9.32
2023-02-25T04:46:42.460Z,7.72
2023-02-25T04:49:12.448Z,10.75
2023-02-25T04:51:43.238Z,9.57
2023-02-25T04:54:13.732Z,11.40
2023-02-25T04:56:43.480Z,10.95
2023-02-25T04:59:13.210Z,9.82
2023-02-25T05:01:43.724Z,10.15
2023-02-25T05:04:13.152Z,8.32
2023-02-25T05:06:43.943Z,11.70
2023-02-25T05:09:13.401Z,10.48
2023-02-25T05:11:42.831Z,9.50
2023-02-25T05:14:12.288Z,11.07
2023-02-25T05:16:41.721Z,8.40
2023-02-25T05:19:17.126Z,13.73
2023-02-25T05:21:48.104Z,7.88
2023-02-25T05:24:18.350Z,10.45
2023-02-25T05:26:47.877Z,9.27
2023-02-25T05:29:17.542Z,10.48
2023-02-25T05:31:47.656Z,8.93
2023-02-25T05:34:18.418Z,10.50
2023-02-25T05:36:49.285Z,12.52
2023-02-25T05:39:18.752Z,10.82
2023-02-25T05:41:48.957Z,9.70
2023-02-25T05:44:18.909Z,10.32
2023-02-25T05:46:48.335Z,11.68
2023-02-25T05:49:17.824Z,10.43
2023-02-25T05:51:50.544Z,12.00
2023-02-25T05:54:19.994Z,12.02
2023-02-25T05:56:52.861Z,11.23
2023-02-25T05:59:22.520Z,11.40
2023-02-25T06:01:52.069Z,11.98
2023-02-25T06:04:22.181Z,10.30
